sensor_id;sensor_type;location;lat;lon;timestamp;temperature;humidity
66522;SHT31;53349;53.538;8.584;2023-12-20T00:00:20;6.68;89.31
66522;SHT31;53349;53.538;8.584;2023-12-20T00:02:47;6.64;89.26
66522;SHT31;53349;53.538;8.584;2023-12-20T00:05:15;6.65;89.28
66522;SHT31;53349;53.538;8.584;2023-12-20T00:07:40;6.65;89.28
66522;SHT31;53349;53.538;8.584;2023-12-20T00:10:07;6.64;89.37
66522;SHT31;53349;53.538;8.584;2023-12-20T00:12:32;6.61;89.43
66522;SHT31;53349;53.538;8.584;2023-12-20T00:14:58;6.58;89.46
66522;SHT31;53349;53.538;8.584;2023-12-20T00:17:23;6.52;89.50
66522;SHT31;53349;53.538;8.584;2023-12-20T00:19:50;6.54;89.54
66522;SHT31;53349;53.538;8.584;2023-12-20T00:22:17;6.52;89.52
66522;SHT31;53349;53.538;8.584;2023-12-20T00:24:45;6.48;89.51
66522;SHT31;53349;53.538;8.584;2023-12-20T00:27:11;6.49;89.57
66522;SHT31;53349;53.538;8.584;2023-12-20T00:29:37;6.48;89.62
66522;SHT31;53349;53.538;8.584;2023-12-20T00:32:04;6.45;89.76
66522;SHT31;53349;53.538;8.584;2023-12-20T00:34:31;6.38;89.86
66522;SHT31;53349;53.538;8.584;2023-12-20T00:37:05;6.35;89.91
66522;SHT31;53349;53.538;8.584;2023-12-20T00:39:34;6.35;90.07
66522;SHT31;53349;53.538;8.584;2023-12-20T00:42:01;6.32;90.17
66522;SHT31;53349;53.538;8.584;2023-12-20T00:44:29;6.35;90.06
66522;SHT31;53349;53.538;8.584;2023-12-20T00:46:57;6.37;89.94
66522;SHT31;53349;53.538;8.584;2023-12-20T00:49:23;6.35;89.97
66522;SHT31;53349;53.538;8.584;2023-12-20T00:51:49;6.35;90.05
66522;SHT31;53349;53.538;8.584;2023-12-20T00:54:17;6.38;90.00
66522;SHT31;53349;53.538;8.584;2023-12-20T00:56:42;6.35;89.94
66522;SHT31;53349;53.538;8.584;2023-12-20T00:59:11;6.32;90.04
66522;SHT31;53349;53.538;8.584;2023-12-20T01:01:40;6.31;90.12
66522;SHT31;53349;53.538;8.584;2023-12-20T01:04:09;6.35;89.95
66522;SHT31;53349;53.538;8.584;2023-12-20T01:06:35;6.34;89.99
66522;SHT31;53349;53.538;8.584;2023-12-20T01:09:02;6.34;90.01
66522;SHT31;53349;53.538;8.584;2023-12-20T01:11:31;6.34;89.97
66522;SHT31;53349;53.538;8.584;2023-12-20T01:13:56;6.37;89.90
66522;SHT31;53349;53.538;8.584;2023-12-20T01:16:21;6.37;89.90
66522;SHT31;53349;53.538;8.584;2023-12-20T01:18:48;6.37;89.99
66522;SHT31;53349;53.538;8.584;2023-12-20T01:21:13;6.35;89.99
66522;SHT31;53349;53.538;8.584;2023-12-20T01:23:41;6.40;90.05
66522;SHT31;53349;53.538;8.584;2023-12-20T01:26:07;6.40;89.86
66522;SHT31;53349;53.538;8.584;2023-12-20T01:28:33;6.44;89.65
66522;SHT31;53349;53.538;8.584;2023-12-20T01:31:04;6.44;89.44
66522;SHT31;53349;53.538;8.584;2023-12-20T01:33:42;6.40;89.49
66522;SHT31;53349;53.538;8.584;2023-12-20T01:36:10;6.40;89.38
66522;SHT31;53349;53.538;8.584;2023-12-20T01:38:37;6.41;89.42
66522;SHT31;53349;53.538;8.584;2023-12-20T01:41:05;6.42;89.30
66522;SHT31;53349;53.538;8.584;2023-12-20T01:43:35;6.40;89.30
66522;SHT31;53349;53.538;8.584;2023-12-20T01:46:05;6.42;89.47
66522;SHT31;53349;53.538;8.584;2023-12-20T01:48:33;6.35;89.44
66522;SHT31;53349;53.538;8.584;2023-12-20T01:51:00;6.37;89.43
66522;SHT31;53349;53.538;8.584;2023-12-20T01:53:27;6.37;89.48
66522;SHT31;53349;53.538;8.584;2023-12-20T01:55:55;6.34;89.49
66522;SHT31;53349;53.538;8.584;2023-12-20T01:58:22;6.35;89.57
66522;SHT31;53349;53.538;8.584;2023-12-20T02:00:49;6.35;89.53
66522;SHT31;53349;53.538;8.584;2023-12-20T02:03:16;6.38;89.50
66522;SHT31;53349;53.538;8.584;2023-12-20T02:05:43;6.40;89.32
66522;SHT31;53349;53.538;8.584;2023-12-20T02:08:09;6.38;89.33
66522;SHT31;53349;53.538;8.584;2023-12-20T02:10:34;6.37;89.27
66522;SHT31;53349;53.538;8.584;2023-12-20T02:13:00;6.41;89.07
66522;SHT31;53349;53.538;8.584;2023-12-20T02:15:26;6.37;88.93
66522;SHT31;53349;53.538;8.584;2023-12-20T02:17:52;6.40;88.92
66522;SHT31;53349;53.538;8.584;2023-12-20T02:20:17;6.42;88.60
66522;SHT31;53349;53.538;8.584;2023-12-20T02:22:44;6.44;88.66
66522;SHT31;53349;53.538;8.584;2023-12-20T02:25:09;6.38;88.73
66522;SHT31;53349;53.538;8.584;2023-12-20T02:27:35;6.42;88.90
66522;SHT31;53349;53.538;8.584;2023-12-20T02:30:02;6.42;88.67
66522;SHT31;53349;53.538;8.584;2023-12-20T02:32:28;6.45;88.61
66522;SHT31;53349;53.538;8.584;2023-12-20T02:34:54;6.42;88.47
66522;SHT31;53349;53.538;8.584;2023-12-20T02:37:21;6.46;88.16
66522;SHT31;53349;53.538;8.584;2023-12-20T02:39:47;6.49;88.10
66522;SHT31;53349;53.538;8.584;2023-12-20T02:42:14;6.51;87.96
66522;SHT31;53349;53.538;8.584;2023-12-20T02:44:39;6.45;88.40
66522;SHT31;53349;53.538;8.584;2023-12-20T02:47:06;6.45;88.42
66522;SHT31;53349;53.538;8.584;2023-12-20T02:49:31;6.45;88.39
66522;SHT31;53349;53.538;8.584;2023-12-20T02:51:56;6.45;88.46
66522;SHT31;53349;53.538;8.584;2023-12-20T02:54:23;6.46;88.48
66522;SHT31;53349;53.538;8.584;2023-12-20T02:56:48;6.46;88.52
66522;SHT31;53349;53.538;8.584;2023-12-20T02:59:15;6.49;88.54
66522;SHT31;53349;53.538;8.584;2023-12-20T03:01:47;6.44;88.39
66522;SHT31;53349;53.538;8.584;2023-12-20T03:04:33;6.46;88.41
66522;SHT31;53349;53.538;8.584;2023-12-20T03:07:02;6.44;88.36
66522;SHT31;53349;53.538;8.584;2023-12-20T03:09:28;6.49;88.38
66522;SHT31;53349;53.538;8.584;2023-12-20T03:11:54;6.48;88.62
66522;SHT31;53349;53.538;8.584;2023-12-20T03:14:20;6.49;88.75
66522;SHT31;53349;53.538;8.584;2023-12-20T03:16:51;6.49;88.61
66522;SHT31;53349;53.538;8.584;2023-12-20T03:19:18;6.52;88.51
66522;SHT31;53349;53.538;8.584;2023-12-20T03:21:44;6.54;88.27
66522;SHT31;53349;53.538;8.584;2023-12-20T03:24:11;6.55;88.39
66522;SHT31;53349;53.538;8.584;2023-12-20T03:26:43;6.58;88.46
66522;SHT31;53349;53.538;8.584;2023-12-20T03:29:08;6.61;88.31
66522;SHT31;53349;53.538;8.584;2023-12-20T03:31:37;6.61;88.51
66522;SHT31;53349;53.538;8.584;2023-12-20T03:34:05;6.62;88.65
66522;SHT31;53349;53.538;8.584;2023-12-20T03:36:30;6.58;88.71
66522;SHT31;53349;53.538;8.584;2023-12-20T03:38:56;6.58;88.69
66522;SHT31;53349;53.538;8.584;2023-12-20T03:41:23;6.58;88.79
66522;SHT31;53349;53.538;8.584;2023-12-20T03:43:51;6.61;88.76
66522;SHT31;53349;53.538;8.584;2023-12-20T03:46:19;6.59;88.74
66522;SHT31;53349;53.538;8.584;2023-12-20T03:48:45;6.59;88.77
66522;SHT31;53349;53.538;8.584;2023-12-20T03:51:11;6.64;88.62
66522;SHT31;53349;53.538;8.584;2023-12-20T03:53:37;6.59;88.70
66522;SHT31;53349;53.538;8.584;2023-12-20T03:56:03;6.61;88.81
66522;SHT31;53349;53.538;8.584;2023-12-20T03:58:29;6.62;89.09
66522;SHT31;53349;53.538;8.584;2023-12-20T04:00:55;6.62;89.12
66522;SHT31;53349;53.538;8.584;2023-12-20T04:03:21;6.62;89.42
66522;SHT31;53349;53.538;8.584;2023-12-20T04:05:47;6.64;89.43
66522;SHT31;53349;53.538;8.584;2023-12-20T04:08:14;6.62;89.33
66522;SHT31;53349;53.538;8.584;2023-12-20T04:10:39;6.65;88.99
66522;SHT31;53349;53.538;8.584;2023-12-20T04:13:06;6.62;89.07
66522;SHT31;53349;53.538;8.584;2023-12-20T04:15:31;6.56;89.09
66522;SHT31;53349;53.538;8.584;2023-12-20T04:17:58;6.59;89.03
66522;SHT31;53349;53.538;8.584;2023-12-20T04:20:23;6.64;88.85
66522;SHT31;53349;53.538;8.584;2023-12-20T04:22:48;6.62;88.73
66522;SHT31;53349;53.538;8.584;2023-12-20T04:25:14;6.62;88.96
66522;SHT31;53349;53.538;8.584;2023-12-20T04:27:41;6.65;88.63
66522;SHT31;53349;53.538;8.584;2023-12-20T04:30:07;6.64;88.42
66522;SHT31;53349;53.538;8.584;2023-12-20T04:32:33;6.64;88.55
66522;SHT31;53349;53.538;8.584;2023-12-20T04:35:00;6.65;88.43
66522;SHT31;53349;53.538;8.584;2023-12-20T04:37:25;6.65;88.47
66522;SHT31;53349;53.538;8.584;2023-12-20T04:39:52;6.64;88.41
66522;SHT31;53349;53.538;8.584;2023-12-20T04:42:19;6.64;88.45
66522;SHT31;53349;53.538;8.584;2023-12-20T04:44:45;6.65;88.51
66522;SHT31;53349;53.538;8.584;2023-12-20T04:47:10;6.65;88.92
66522;SHT31;53349;53.538;8.584;2023-12-20T04:49:37;6.62;89.06
66522;SHT31;53349;53.538;8.584;2023-12-20T04:52:02;6.64;89.13
66522;SHT31;53349;53.538;8.584;2023-12-20T04:54:27;6.65;89.08
66522;SHT31;53349;53.538;8.584;2023-12-20T04:57:06;6.68;89.23
66522;SHT31;53349;53.538;8.584;2023-12-20T04:59:33;6.67;89.39
66522;SHT31;53349;53.538;8.584;2023-12-20T05:01:59;6.69;89.43
66522;SHT31;53349;53.538;8.584;2023-12-20T05:04:26;6.67;89.25
66522;SHT31;53349;53.538;8.584;2023-12-20T05:06:55;6.71;89.22
66522;SHT31;53349;53.538;8.584;2023-12-20T05:09:29;6.69;89.15
66522;SHT31;53349;53.538;8.584;2023-12-20T05:11:56;6.68;89.16
66522;SHT31;53349;53.538;8.584;2023-12-20T05:14:21;6.65;89.39
66522;SHT31;53349;53.538;8.584;2023-12-20T05:16:50;6.62;89.80
66522;SHT31;53349;53.538;8.584;2023-12-20T05:19:16;6.65;89.57
66522;SHT31;53349;53.538;8.584;2023-12-20T05:21:41;6.64;89.50
66522;SHT31;53349;53.538;8.584;2023-12-20T05:24:07;6.62;89.46
66522;SHT31;53349;53.538;8.584;2023-12-20T05:26:33;6.59;89.49
66522;SHT31;53349;53.538;8.584;2023-12-20T05:28:59;6.64;89.50
66522;SHT31;53349;53.538;8.584;2023-12-20T05:31:26;6.64;89.25
66522;SHT31;53349;53.538;8.584;2023-12-20T05:33:51;6.68;89.12
66522;SHT31;53349;53.538;8.584;2023-12-20T05:36:17;6.67;89.12
66522;SHT31;53349;53.538;8.584;2023-12-20T05:38:43;6.65;89.02
66522;SHT31;53349;53.538;8.584;2023-12-20T05:41:08;6.69;88.84
66522;SHT31;53349;53.538;8.584;2023-12-20T05:43:34;6.68;88.71
66522;SHT31;53349;53.538;8.584;2023-12-20T05:46:01;6.71;88.73
66522;SHT31;53349;53.538;8.584;2023-12-20T05:48:28;6.71;88.79
66522;SHT31;53349;53.538;8.584;2023-12-20T05:50:53;6.71;88.86
66522;SHT31;53349;53.538;8.584;2023-12-20T05:53:20;6.75;88.57
66522;SHT31;53349;53.538;8.584;2023-12-20T05:55:46;6.76;88.56
66522;SHT31;53349;53.538;8.584;2023-12-20T05:58:15;6.75;88.75
66522;SHT31;53349;53.538;8.584;2023-12-20T06:00:42;6.76;88.60
66522;SHT31;53349;53.538;8.584;2023-12-20T06:03:08;6.78;88.65
66522;SHT31;53349;53.538;8.584;2023-12-20T06:05:35;6.85;88.62
66522;SHT31;53349;53.538;8.584;2023-12-20T06:08:02;6.81;88.67
66522;SHT31;53349;53.538;8.584;2023-12-20T06:10:30;6.83;88.64
66522;SHT31;53349;53.538;8.584;2023-12-20T06:12:55;6.76;88.49
66522;SHT31;53349;53.538;8.584;2023-12-20T06:15:21;6.71;88.61
66522;SHT31;53349;53.538;8.584;2023-12-20T06:17:47;6.76;88.65
66522;SHT31;53349;53.538;8.584;2023-12-20T06:20:17;6.75;88.57
66522;SHT31;53349;53.538;8.584;2023-12-20T06:22:43;6.75;88.55
66522;SHT31;53349;53.538;8.584;2023-12-20T06:25:08;6.69;88.50
66522;SHT31;53349;53.538;8.584;2023-12-20T06:27:33;6.68;88.66
66522;SHT31;53349;53.538;8.584;2023-12-20T06:29:59;6.72;88.50
66522;SHT31;53349;53.538;8.584;2023-12-20T06:32:25;6.72;88.39
66522;SHT31;53349;53.538;8.584;2023-12-20T06:34:52;6.72;88.44
66522;SHT31;53349;53.538;8.584;2023-12-20T06:37:17;6.71;88.53
66522;SHT31;53349;53.538;8.584;2023-12-20T06:39:44;6.68;88.50
66522;SHT31;53349;53.538;8.584;2023-12-20T06:42:09;6.65;88.54
66522;SHT31;53349;53.538;8.584;2023-12-20T06:44:35;6.69;88.57
66522;SHT31;53349;53.538;8.584;2023-12-20T06:47:02;6.72;88.43
66522;SHT31;53349;53.538;8.584;2023-12-20T06:49:29;6.68;88.62
66522;SHT31;53349;53.538;8.584;2023-12-20T06:51:55;6.69;88.61
66522;SHT31;53349;53.538;8.584;2023-12-20T06:54:21;6.73;88.69
66522;SHT31;53349;53.538;8.584;2023-12-20T06:56:48;6.71;88.90
66522;SHT31;53349;53.538;8.584;2023-12-20T06:59:16;6.69;89.01
66522;SHT31;53349;53.538;8.584;2023-12-20T07:01:42;6.69;89.18
66522;SHT31;53349;53.538;8.584;2023-12-20T07:04:08;6.68;89.46
66522;SHT31;53349;53.538;8.584;2023-12-20T07:06:34;6.71;89.49
66522;SHT31;53349;53.538;8.584;2023-12-20T07:09:03;6.71;89.52
66522;SHT31;53349;53.538;8.584;2023-12-20T07:11:29;6.75;89.61
66522;SHT31;53349;53.538;8.584;2023-12-20T07:13:54;6.73;90.14
66522;SHT31;53349;53.538;8.584;2023-12-20T07:16:20;6.72;90.48
66522;SHT31;53349;53.538;8.584;2023-12-20T07:18:45;6.73;90.50
66522;SHT31;53349;53.538;8.584;2023-12-20T07:21:10;6.72;90.40
66522;SHT31;53349;53.538;8.584;2023-12-20T07:23:38;6.72;90.30
66522;SHT31;53349;53.538;8.584;2023-12-20T07:26:04;6.69;90.38
66522;SHT31;53349;53.538;8.584;2023-12-20T07:28:31;6.68;90.59
66522;SHT31;53349;53.538;8.584;2023-12-20T07:31:00;6.69;90.53
66522;SHT31;53349;53.538;8.584;2023-12-20T07:33:27;6.73;90.55
66522;SHT31;53349;53.538;8.584;2023-12-20T07:35:52;6.78;90.36
66522;SHT31;53349;53.538;8.584;2023-12-20T07:38:17;6.82;89.68
66522;SHT31;53349;53.538;8.584;2023-12-20T07:40:46;6.82;89.55
66522;SHT31;53349;53.538;8.584;2023-12-20T07:43:13;6.81;89.61
66522;SHT31;53349;53.538;8.584;2023-12-20T07:45:41;6.85;89.62
66522;SHT31;53349;53.538;8.584;2023-12-20T07:48:09;6.85;89.78
66522;SHT31;53349;53.538;8.584;2023-12-20T07:50:35;6.85;89.99
66522;SHT31;53349;53.538;8.584;2023-12-20T07:53:02;6.88;90.16
66522;SHT31;53349;53.538;8.584;2023-12-20T07:55:30;6.82;90.65
66522;SHT31;53349;53.538;8.584;2023-12-20T07:57:57;6.81;90.82
66522;SHT31;53349;53.538;8.584;2023-12-20T08:00:22;6.83;91.14
66522;SHT31;53349;53.538;8.584;2023-12-20T08:02:48;6.81;91.55
66522;SHT31;53349;53.538;8.584;2023-12-20T08:05:13;6.81;91.47
66522;SHT31;53349;53.538;8.584;2023-12-20T08:07:39;6.75;91.90
66522;SHT31;53349;53.538;8.584;2023-12-20T08:10:05;6.72;92.45
66522;SHT31;53349;53.538;8.584;2023-12-20T08:12:31;6.68;92.40
66522;SHT31;53349;53.538;8.584;2023-12-20T08:14:58;6.65;92.34
66522;SHT31;53349;53.538;8.584;2023-12-20T08:17:36;6.61;92.49
66522;SHT31;53349;53.538;8.584;2023-12-20T08:20:02;6.61;92.22
66522;SHT31;53349;53.538;8.584;2023-12-20T08:22:30;6.56;91.36
66522;SHT31;53349;53.538;8.584;2023-12-20T08:24:56;6.54;91.17
66522;SHT31;53349;53.538;8.584;2023-12-20T08:27:23;6.55;91.46
66522;SHT31;53349;53.538;8.584;2023-12-20T08:29:48;6.56;91.53
66522;SHT31;53349;53.538;8.584;2023-12-20T08:32:14;6.59;91.72
66522;SHT31;53349;53.538;8.584;2023-12-20T08:34:39;6.59;91.54
66522;SHT31;53349;53.538;8.584;2023-12-20T08:37:04;6.25;88.93
66522;SHT31;53349;53.538;8.584;2023-12-20T08:39:30;6.03;89.41
66522;SHT31;53349;53.538;8.584;2023-12-20T08:41:55;5.77;89.26
66522;SHT31;53349;53.538;8.584;2023-12-20T08:44:21;5.58;89.87
66522;SHT31;53349;53.538;8.584;2023-12-20T08:46:51;5.46;90.69
66522;SHT31;53349;53.538;8.584;2023-12-20T08:49:18;5.39;90.53
66522;SHT31;53349;53.538;8.584;2023-12-20T08:51:43;5.29;90.82
66522;SHT31;53349;53.538;8.584;2023-12-20T08:54:10;5.24;91.04
66522;SHT31;53349;53.538;8.584;2023-12-20T08:56:36;5.18;90.70
66522;SHT31;53349;53.538;8.584;2023-12-20T08:59:02;5.17;91.01
66522;SHT31;53349;53.538;8.584;2023-12-20T09:01:29;5.12;91.19
66522;SHT31;53349;53.538;8.584;2023-12-20T09:03:54;5.15;91.10
66522;SHT31;53349;53.538;8.584;2023-12-20T09:06:20;5.17;91.18
66522;SHT31;53349;53.538;8.584;2023-12-20T09:08:45;5.25;91.33
66522;SHT31;53349;53.538;8.584;2023-12-20T09:11:11;5.28;91.13
66522;SHT31;53349;53.538;8.584;2023-12-20T09:13:37;5.35;91.43
66522;SHT31;53349;53.538;8.584;2023-12-20T09:16:03;5.38;91.15
66522;SHT31;53349;53.538;8.584;2023-12-20T09:18:34;5.45;91.18
66522;SHT31;53349;53.538;8.584;2023-12-20T09:21:00;5.49;90.93
66522;SHT31;53349;53.538;8.584;2023-12-20T09:23:25;5.52;90.90
66522;SHT31;53349;53.538;8.584;2023-12-20T09:25:50;5.56;90.75
66522;SHT31;53349;53.538;8.584;2023-12-20T09:28:20;5.58;90.65
66522;SHT31;53349;53.538;8.584;2023-12-20T09:30:49;5.58;90.71
66522;SHT31;53349;53.538;8.584;2023-12-20T09:33:15;5.55;90.74
66522;SHT31;53349;53.538;8.584;2023-12-20T09:35:40;5.58;90.60
66522;SHT31;53349;53.538;8.584;2023-12-20T09:38:05;5.66;91.09
66522;SHT31;53349;53.538;8.584;2023-12-20T09:40:32;5.79;92.07
66522;SHT31;53349;53.538;8.584;2023-12-20T09:42:59;5.90;92.35
66522;SHT31;53349;53.538;8.584;2023-12-20T09:45:30;6.00;92.14
66522;SHT31;53349;53.538;8.584;2023-12-20T09:47:58;6.07;92.18
66522;SHT31;53349;53.538;8.584;2023-12-20T09:50:25;6.13;92.17
66522;SHT31;53349;53.538;8.584;2023-12-20T09:52:54;6.28;92.58
66522;SHT31;53349;53.538;8.584;2023-12-20T09:55:23;6.46;92.49
66522;SHT31;53349;53.538;8.584;2023-12-20T09:57:50;6.55;92.28
66522;SHT31;53349;53.538;8.584;2023-12-20T10:00:16;6.55;91.69
66522;SHT31;53349;53.538;8.584;2023-12-20T10:03:00;6.59;91.51
66522;SHT31;53349;53.538;8.584;2023-12-20T10:05:30;6.65;91.11
66522;SHT31;53349;53.538;8.584;2023-12-20T10:07:59;6.67;90.91
66522;SHT31;53349;53.538;8.584;2023-12-20T10:10:27;6.71;90.57
66522;SHT31;53349;53.538;8.584;2023-12-20T10:13:06;6.69;89.96
66522;SHT31;53349;53.538;8.584;2023-12-20T10:15:35;6.75;89.55
66522;SHT31;53349;53.538;8.584;2023-12-20T10:18:03;6.76;88.51
66522;SHT31;53349;53.538;8.584;2023-12-20T10:20:31;6.71;88.27
66522;SHT31;53349;53.538;8.584;2023-12-20T10:22:57;6.67;88.22
66522;SHT31;53349;53.538;8.584;2023-12-20T10:25:26;6.59;87.61
66522;SHT31;53349;53.538;8.584;2023-12-20T10:28:18;6.58;87.44
66522;SHT31;53349;53.538;8.584;2023-12-20T10:30:43;6.58;87.07
66522;SHT31;53349;53.538;8.584;2023-12-20T10:33:09;6.59;86.57
66522;SHT31;53349;53.538;8.584;2023-12-20T10:35:38;6.56;86.34
66522;SHT31;53349;53.538;8.584;2023-12-20T10:38:05;6.59;86.49
66522;SHT31;53349;53.538;8.584;2023-12-20T10:40:35;6.56;86.15
66522;SHT31;53349;53.538;8.584;2023-12-20T10:43:04;6.62;86.52
66522;SHT31;53349;53.538;8.584;2023-12-20T10:45:29;6.69;85.93
66522;SHT31;53349;53.538;8.584;2023-12-20T10:47:56;6.72;85.72
66522;SHT31;53349;53.538;8.584;2023-12-20T10:50:24;6.73;85.51
66522;SHT31;53349;53.538;8.584;2023-12-20T10:52:56;6.73;85.58
66522;SHT31;53349;53.538;8.584;2023-12-20T10:55:26;6.72;84.88
66522;SHT31;53349;53.538;8.584;2023-12-20T10:57:52;6.76;85.30
66522;SHT31;53349;53.538;8.584;2023-12-20T11:00:22;6.92;84.95
66522;SHT31;53349;53.538;8.584;2023-12-20T11:02:49;7.09;84.69
66522;SHT31;53349;53.538;8.584;2023-12-20T11:08:10;7.40;83.53
66522;SHT31;53349;53.538;8.584;2023-12-20T11:13:39;7.65;82.70
66522;SHT31;53349;53.538;8.584;2023-12-20T11:16:07;7.75;82.18
66522;SHT31;53349;53.538;8.584;2023-12-20T11:18:35;7.67;82.25
66522;SHT31;53349;53.538;8.584;2023-12-20T11:21:04;7.64;82.61
66522;SHT31;53349;53.538;8.584;2023-12-20T11:23:30;7.53;82.24
66522;SHT31;53349;53.538;8.584;2023-12-20T11:25:57;7.47;81.94
66522;SHT31;53349;53.538;8.584;2023-12-20T11:28:24;7.46;80.26
66522;SHT31;53349;53.538;8.584;2023-12-20T11:30:54;7.41;80.59
66522;SHT31;53349;53.538;8.584;2023-12-20T11:33:26;7.31;79.81
66522;SHT31;53349;53.538;8.584;2023-12-20T11:35:56;7.34;79.99
66522;SHT31;53349;53.538;8.584;2023-12-20T11:38:21;7.28;79.68
66522;SHT31;53349;53.538;8.584;2023-12-20T11:40:50;7.34;79.22
66522;SHT31;53349;53.538;8.584;2023-12-20T11:43:37;7.31;79.24
66522;SHT31;53349;53.538;8.584;2023-12-20T11:46:06;7.30;79.07
66522;SHT31;53349;53.538;8.584;2023-12-20T11:48:36;7.31;78.84
66522;SHT31;53349;53.538;8.584;2023-12-20T11:51:02;7.34;78.75
66522;SHT31;53349;53.538;8.584;2023-12-20T11:53:35;7.37;79.26
66522;SHT31;53349;53.538;8.584;2023-12-20T11:56:00;7.33;79.03
66522;SHT31;53349;53.538;8.584;2023-12-20T11:58:27;7.37;79.26
66522;SHT31;53349;53.538;8.584;2023-12-20T12:00:55;7.34;79.20
66522;SHT31;53349;53.538;8.584;2023-12-20T12:03:21;7.34;79.53
66522;SHT31;53349;53.538;8.584;2023-12-20T12:05:47;7.34;80.03
66522;SHT31;53349;53.538;8.584;2023-12-20T12:08:14;7.33;79.88
66522;SHT31;53349;53.538;8.584;2023-12-20T12:10:40;7.28;80.58
66522;SHT31;53349;53.538;8.584;2023-12-20T12:13:06;7.28;81.12
66522;SHT31;53349;53.538;8.584;2023-12-20T12:15:32;7.24;80.90
66522;SHT31;53349;53.538;8.584;2023-12-20T12:17:58;7.24;81.53
66522;SHT31;53349;53.538;8.584;2023-12-20T12:20:25;7.24;81.31
66522;SHT31;53349;53.538;8.584;2023-12-20T12:23:03;7.27;81.56
66522;SHT31;53349;53.538;8.584;2023-12-20T12:25:30;7.26;81.66
66522;SHT31;53349;53.538;8.584;2023-12-20T12:27:56;7.27;81.73
66522;SHT31;53349;53.538;8.584;2023-12-20T12:30:22;7.30;81.51
66522;SHT31;53349;53.538;8.584;2023-12-20T12:32:47;7.30;80.77
66522;SHT31;53349;53.538;8.584;2023-12-20T12:35:14;7.31;80.21
66522;SHT31;53349;53.538;8.584;2023-12-20T12:37:41;7.31;79.97
66522;SHT31;53349;53.538;8.584;2023-12-20T12:40:19;7.31;80.31
66522;SHT31;53349;53.538;8.584;2023-12-20T12:42:51;7.31;80.18
66522;SHT31;53349;53.538;8.584;2023-12-20T12:45:17;7.28;80.64
66522;SHT31;53349;53.538;8.584;2023-12-20T12:47:42;7.31;79.72
66522;SHT31;53349;53.538;8.584;2023-12-20T12:50:08;7.33;79.69
66522;SHT31;53349;53.538;8.584;2023-12-20T12:52:34;7.30;80.40
66522;SHT31;53349;53.538;8.584;2023-12-20T12:55:01;7.37;80.96
66522;SHT31;53349;53.538;8.584;2023-12-20T12:57:27;7.38;80.80
66522;SHT31;53349;53.538;8.584;2023-12-20T12:59:53;7.40;80.50
66522;SHT31;53349;53.538;8.584;2023-12-20T13:02:18;7.38;79.80
66522;SHT31;53349;53.538;8.584;2023-12-20T13:04:46;7.38;79.85
66522;SHT31;53349;53.538;8.584;2023-12-20T13:07:12;7.40;80.13
66522;SHT31;53349;53.538;8.584;2023-12-20T13:09:39;7.41;79.87
66522;SHT31;53349;53.538;8.584;2023-12-20T13:12:06;7.46;79.09
66522;SHT31;53349;53.538;8.584;2023-12-20T13:14:34;7.47;78.51
66522;SHT31;53349;53.538;8.584;2023-12-20T13:16:59;7.50;77.74
66522;SHT31;53349;53.538;8.584;2023-12-20T13:19:25;7.48;77.36
66522;SHT31;53349;53.538;8.584;2023-12-20T13:21:50;7.48;77.49
66522;SHT31;53349;53.538;8.584;2023-12-20T13:24:17;7.51;78.09
66522;SHT31;53349;53.538;8.584;2023-12-20T13:26:43;7.48;77.17
66522;SHT31;53349;53.538;8.584;2023-12-20T13:29:09;7.48;77.70
66522;SHT31;53349;53.538;8.584;2023-12-20T13:31:36;7.38;80.80
66522;SHT31;53349;53.538;8.584;2023-12-20T13:34:01;7.31;82.66
66522;SHT31;53349;53.538;8.584;2023-12-20T13:36:26;7.30;82.17
66522;SHT31;53349;53.538;8.584;2023-12-20T13:38:52;7.17;82.60
66522;SHT31;53349;53.538;8.584;2023-12-20T13:41:21;7.10;83.03
66522;SHT31;53349;53.538;8.584;2023-12-20T13:43:46;7.06;83.40
66522;SHT31;53349;53.538;8.584;2023-12-20T13:46:12;7.07;83.34
66522;SHT31;53349;53.538;8.584;2023-12-20T13:48:38;7.04;83.56
66522;SHT31;53349;53.538;8.584;2023-12-20T13:51:04;7.09;83.66
66522;SHT31;53349;53.538;8.584;2023-12-20T13:53:29;7.04;83.41
66522;SHT31;53349;53.538;8.584;2023-12-20T13:55:55;7.02;82.79
66522;SHT31;53349;53.538;8.584;2023-12-20T13:58:20;6.99;81.52
66522;SHT31;53349;53.538;8.584;2023-12-20T14:00:45;6.97;81.39
66522;SHT31;53349;53.538;8.584;2023-12-20T14:03:12;6.91;81.83
66522;SHT31;53349;53.538;8.584;2023-12-20T14:05:38;6.61;83.47
66522;SHT31;53349;53.538;8.584;2023-12-20T14:08:04;6.42;85.23
66522;SHT31;53349;53.538;8.584;2023-12-20T14:10:36;6.30;85.39
66522;SHT31;53349;53.538;8.584;2023-12-20T14:13:04;6.23;84.60
66522;SHT31;53349;53.538;8.584;2023-12-20T14:15:30;6.20;85.56
66522;SHT31;53349;53.538;8.584;2023-12-20T14:17:57;6.20;86.44
66522;SHT31;53349;53.538;8.584;2023-12-20T14:20:22;6.20;86.38
66522;SHT31;53349;53.538;8.584;2023-12-20T14:22:49;6.24;86.82
66522;SHT31;53349;53.538;8.584;2023-12-20T14:25:14;6.24;87.35
66522;SHT31;53349;53.538;8.584;2023-12-20T14:27:41;6.27;87.37
66522;SHT31;53349;53.538;8.584;2023-12-20T14:30:07;6.30;87.76
66522;SHT31;53349;53.538;8.584;2023-12-20T14:32:35;6.30;87.61
66522;SHT31;53349;53.538;8.584;2023-12-20T14:35:02;6.32;87.92
66522;SHT31;53349;53.538;8.584;2023-12-20T14:37:27;6.32;87.76
66522;SHT31;53349;53.538;8.584;2023-12-20T14:39:55;6.37;87.84
66522;SHT31;53349;53.538;8.584;2023-12-20T14:42:21;6.40;87.97
66522;SHT31;53349;53.538;8.584;2023-12-20T14:44:46;6.41;87.80
66522;SHT31;53349;53.538;8.584;2023-12-20T14:47:11;6.41;87.75
66522;SHT31;53349;53.538;8.584;2023-12-20T14:49:37;6.44;87.77
66522;SHT31;53349;53.538;8.584;2023-12-20T14:52:03;6.48;87.65
66522;SHT31;53349;53.538;8.584;2023-12-20T14:54:31;6.48;87.82
66522;SHT31;53349;53.538;8.584;2023-12-20T14:56:59;6.52;87.65
66522;SHT31;53349;53.538;8.584;2023-12-20T14:59:25;6.52;87.61
66522;SHT31;53349;53.538;8.584;2023-12-20T15:01:52;6.59;87.68
66522;SHT31;53349;53.538;8.584;2023-12-20T15:04:17;6.61;87.89
66522;SHT31;53349;53.538;8.584;2023-12-20T15:06:42;6.65;88.39
66522;SHT31;53349;53.538;8.584;2023-12-20T15:09:09;6.68;87.76
66522;SHT31;53349;53.538;8.584;2023-12-20T15:11:40;6.72;87.67
66522;SHT31;53349;53.538;8.584;2023-12-20T15:14:06;6.73;87.31
66522;SHT31;53349;53.538;8.584;2023-12-20T15:16:31;6.78;87.09
66522;SHT31;53349;53.538;8.584;2023-12-20T15:18:57;6.76;86.87
66522;SHT31;53349;53.538;8.584;2023-12-20T15:21:23;6.76;86.59
66522;SHT31;53349;53.538;8.584;2023-12-20T15:23:49;6.76;85.89
66522;SHT31;53349;53.538;8.584;2023-12-20T15:26:14;6.73;85.80
66522;SHT31;53349;53.538;8.584;2023-12-20T15:28:40;6.68;85.11
66522;SHT31;53349;53.538;8.584;2023-12-20T15:31:07;6.65;85.66
66522;SHT31;53349;53.538;8.584;2023-12-20T15:33:33;6.59;84.99
66522;SHT31;53349;53.538;8.584;2023-12-20T15:36:00;6.55;84.79
66522;SHT31;53349;53.538;8.584;2023-12-20T15:38:25;6.51;84.22
66522;SHT31;53349;53.538;8.584;2023-12-20T15:40:51;6.46;83.76
66522;SHT31;53349;53.538;8.584;2023-12-20T15:43:16;6.46;83.91
66522;SHT31;53349;53.538;8.584;2023-12-20T15:45:42;6.46;84.06
66522;SHT31;53349;53.538;8.584;2023-12-20T15:48:07;6.45;84.25